sensor_id;sensor_type;location;lat;lon;timestamp;P1;durP1;ratioP1;P2;durP2;ratioP2
5622;SDS011;2833;50.432;10.706;2023-05-07T00:01:09;4.10;;;3.70;;
5622;SDS011;2833;50.432;10.706;2023-05-07T00:03:35;4.83;;;3.40;;
5622;SDS011;2833;50.432;10.706;2023-05-07T00:06:01;3.87;;;3.50;;
5622;SDS011;2833;50.432;10.706;2023-05-07T00:08:26;3.73;;;3.30;;
5622;SDS011;2833;50.432;10.706;2023-05-07T00:10:51;3.73;;;3.43;;
5622;SDS011;2833;50.432;10.706;2023-05-07T00:13:17;4.20;;;3.37;;
5622;SDS011;2833;50.432;10.706;2023-05-07T00:15:42;3.50;;;3.20;;
5622;SDS011;2833;50.432;10.706;2023-05-07T00:18:07;4.33;;;3.50;;
5622;SDS011;2833;50.432;10.706;2023-05-07T00:20:32;3.83;;;3.47;;
5622;SDS011;2833;50.432;10.706;2023-05-07T00:22:57;5.80;;;3.40;;
5622;SDS011;2833;50.432;10.706;2023-05-07T00:25:22;4.30;;;3.70;;
5622;SDS011;2833;50.432;10.706;2023-05-07T00:27:48;6.60;;;4.40;;
5622;SDS011;2833;50.432;10.706;2023-05-07T00:30:13;5.43;;;4.30;;
5622;SDS011;2833;50.432;10.706;2023-05-07T00:32:38;6.30;;;4.37;;
5622;SDS011;2833;50.432;10.706;2023-05-07T00:35:04;4.00;;;3.60;;
5622;SDS011;2833;50.432;10.706;2023-05-07T00:37:29;6.83;;;3.90;;
5622;SDS011;2833;50.432;10.706;2023-05-07T00:39:55;3.97;;;3.57;;
5622;SDS011;2833;50.432;10.706;2023-05-07T00:42:20;4.37;;;3.70;;
5622;SDS011;2833;50.432;10.706;2023-05-07T00:44:45;4.93;;;3.53;;
5622;SDS011;2833;50.432;10.706;2023-05-07T00:47:11;3.77;;;3.37;;
5622;SDS011;2833;50.432;10.706;2023-05-07T00:49:41;3.60;;;3.30;;
5622;SDS011;2833;50.432;10.706;2023-05-07T00:52:06;4.33;;;3.93;;
5622;SDS011;2833;50.432;10.706;2023-05-07T00:54:32;5.50;;;4.27;;
5622;SDS011;2833;50.432;10.706;2023-05-07T00:56:58;4.37;;;3.97;;
5622;SDS011;2833;50.432;10.706;2023-05-07T00:59:23;4.40;;;4.00;;
5622;SDS011;2833;50.432;10.706;2023-05-07T01:01:49;7.40;;;4.13;;
5622;SDS011;2833;50.432;10.706;2023-05-07T01:04:14;4.53;;;4.07;;
5622;SDS011;2833;50.432;10.706;2023-05-07T01:06:39;6.70;;;3.93;;
5622;SDS011;2833;50.432;10.706;2023-05-07T01:09:05;4.20;;;3.73;;
5622;SDS011;2833;50.432;10.706;2023-05-07T01:11:30;4.10;;;3.70;;
5622;SDS011;2833;50.432;10.706;2023-05-07T01:13:56;4.27;;;3.87;;
5622;SDS011;2833;50.432;10.706;2023-05-07T01:16:23;10.10;;;4.60;;
5622;SDS011;2833;50.432;10.706;2023-05-07T01:18:49;4.33;;;3.80;;
5622;SDS011;2833;50.432;10.706;2023-05-07T01:21:14;4.77;;;3.80;;
5622;SDS011;2833;50.432;10.706;2023-05-07T01:23:40;5.23;;;3.67;;
5622;SDS011;2833;50.432;10.706;2023-05-07T01:26:06;8.03;;;4.67;;
5622;SDS011;2833;50.432;10.706;2023-05-07T01:28:31;4.57;;;4.17;;
5622;SDS011;2833;50.432;10.706;2023-05-07T01:30:59;9.07;;;6.27;;
5622;SDS011;2833;50.432;10.706;2023-05-07T01:33:26;5.70;;;4.80;;
5622;SDS011;2833;50.432;10.706;2023-05-07T01:35:53;8.13;;;6.10;;
5622;SDS011;2833;50.432;10.706;2023-05-07T01:38:18;9.73;;;7.20;;
5622;SDS011;2833;50.432;10.706;2023-05-07T01:40:45;13.30;;;7.50;;
5622;SDS011;2833;50.432;10.706;2023-05-07T01:43:11;10.10;;;7.90;;
5622;SDS011;2833;50.432;10.706;2023-05-07T01:45:36;8.93;;;6.87;;
5622;SDS011;2833;50.432;10.706;2023-05-07T01:48:02;7.43;;;5.80;;
5622;SDS011;2833;50.432;10.706;2023-05-07T01:50:27;6.60;;;5.87;;
5622;SDS011;2833;50.432;10.706;2023-05-07T01:52:53;6.47;;;5.70;;
5622;SDS011;2833;50.432;10.706;2023-05-07T01:55:18;8.23;;;5.77;;
5622;SDS011;2833;50.432;10.706;2023-05-07T01:57:44;8.47;;;6.57;;
5622;SDS011;2833;50.432;10.706;2023-05-07T02:00:09;9.00;;;7.00;;
5622;SDS011;2833;50.432;10.706;2023-05-07T02:02:35;7.70;;;6.50;;
5622;SDS011;2833;50.432;10.706;2023-05-07T02:05:00;7.57;;;5.90;;
5622;SDS011;2833;50.432;10.706;2023-05-07T02:07:28;6.60;;;5.53;;
5622;SDS011;2833;50.432;10.706;2023-05-07T02:09:53;8.33;;;6.40;;
5622;SDS011;2833;50.432;10.706;2023-05-07T02:12:20;12.53;;;8.63;;
5622;SDS011;2833;50.432;10.706;2023-05-07T02:14:45;12.63;;;8.90;;
5622;SDS011;2833;50.432;10.706;2023-05-07T02:17:10;14.80;;;9.70;;
5622;SDS011;2833;50.432;10.706;2023-05-07T02:19:35;15.23;;;10.83;;
5622;SDS011;2833;50.432;10.706;2023-05-07T02:22:01;14.30;;;9.80;;
5622;SDS011;2833;50.432;10.706;2023-05-07T02:24:26;14.93;;;10.20;;
5622;SDS011;2833;50.432;10.706;2023-05-07T02:26:51;14.90;;;10.83;;
5622;SDS011;2833;50.432;10.706;2023-05-07T02:29:16;16.10;;;10.83;;
5622;SDS011;2833;50.432;10.706;2023-05-07T02:31:41;16.40;;;10.73;;
5622;SDS011;2833;50.432;10.706;2023-05-07T02:34:06;15.87;;;10.50;;
5622;SDS011;2833;50.432;10.706;2023-05-07T02:36:32;15.73;;;11.23;;
5622;SDS011;2833;50.432;10.706;2023-05-07T02:38:57;13.47;;;10.10;;
5622;SDS011;2833;50.432;10.706;2023-05-07T02:41:22;15.10;;;9.93;;
5622;SDS011;2833;50.432;10.706;2023-05-07T02:43:47;11.80;;;9.20;;
5622;SDS011;2833;50.432;10.706;2023-05-07T02:46:12;12.93;;;10.13;;
5622;SDS011;2833;50.432;10.706;2023-05-07T02:48:38;16.53;;;10.80;;
5622;SDS011;2833;50.432;10.706;2023-05-07T02:51:03;16.30;;;11.43;;
5622;SDS011;2833;50.432;10.706;2023-05-07T02:53:28;16.03;;;11.20;;
5622;SDS011;2833;50.432;10.706;2023-05-07T02:55:57;15.00;;;10.80;;
5622;SDS011;2833;50.432;10.706;2023-05-07T02:58:23;14.10;;;10.87;;
5622;SDS011;2833;50.432;10.706;2023-05-07T03:00:48;15.87;;;11.00;;
5622;SDS011;2833;50.432;10.706;2023-05-07T03:03:14;14.63;;;11.37;;
5622;SDS011;2833;50.432;10.706;2023-05-07T03:05:39;17.70;;;12.30;;
5622;SDS011;2833;50.432;10.706;2023-05-07T03:08:04;20.23;;;12.40;;
5622;SDS011;2833;50.432;10.706;2023-05-07T03:10:30;19.00;;;12.60;;
5622;SDS011;2833;50.432;10.706;2023-05-07T03:12:55;19.87;;;12.67;;
5622;SDS011;2833;50.432;10.706;2023-05-07T03:15:20;19.67;;;13.60;;
5622;SDS011;2833;50.432;10.706;2023-05-07T03:17:46;18.03;;;12.47;;
5622;SDS011;2833;50.432;10.706;2023-05-07T03:20:11;18.17;;;12.33;;
5622;SDS011;2833;50.432;10.706;2023-05-07T03:22:37;19.87;;;12.67;;
5622;SDS011;2833;50.432;10.706;2023-05-07T03:25:03;16.67;;;11.87;;
5622;SDS011;2833;50.432;10.706;2023-05-07T03:27:28;17.83;;;12.10;;
5622;SDS011;2833;50.432;10.706;2023-05-07T03:29:53;14.20;;;10.50;;
5622;SDS011;2833;50.432;10.706;2023-05-07T03:32:18;15.60;;;10.57;;
5622;SDS011;2833;50.432;10.706;2023-05-07T03:34:44;15.00;;;11.20;;
5622;SDS011;2833;50.432;10.706;2023-05-07T03:37:09;15.67;;;11.73;;
5622;SDS011;2833;50.432;10.706;2023-05-07T03:39:34;16.83;;;11.67;;
5622;SDS011;2833;50.432;10.706;2023-05-07T03:42:00;17.17;;;12.30;;
5622;SDS011;2833;50.432;10.706;2023-05-07T03:44:25;19.20;;;12.20;;
5622;SDS011;2833;50.432;10.706;2023-05-07T03:46:51;17.00;;;11.93;;
5622;SDS011;2833;50.432;10.706;2023-05-07T03:49:16;16.10;;;10.57;;
5622;SDS011;2833;50.432;10.706;2023-05-07T03:51:41;17.53;;;11.60;;
5622;SDS011;2833;50.432;10.706;2023-05-07T03:54:07;19.13;;;12.57;;
5622;SDS011;2833;50.432;10.706;2023-05-07T03:56:32;17.47;;;13.00;;
5622;SDS011;2833;50.432;10.706;2023-05-07T03:58:57;17.73;;;12.60;;
5622;SDS011;2833;50.432;10.706;2023-05-07T04:01:22;18.73;;;13.07;;
5622;SDS011;2833;50.432;10.706;2023-05-07T04:03:47;14.57;;;10.80;;
5622;SDS011;2833;50.432;10.706;2023-05-07T04:06:13;14.97;;;11.50;;
5622;SDS011;2833;50.432;10.706;2023-05-07T04:08:38;16.27;;;11.67;;
5622;SDS011;2833;50.432;10.706;2023-05-07T04:11:03;17.27;;;12.00;;
5622;SDS011;2833;50.432;10.706;2023-05-07T04:13:29;16.20;;;12.33;;
5622;SDS011;2833;50.432;10.706;2023-05-07T04:15:54;14.83;;;11.10;;
5622;SDS011;2833;50.432;10.706;2023-05-07T04:18:20;15.80;;;11.70;;
5622;SDS011;2833;50.432;10.706;2023-05-07T04:20:46;15.87;;;11.30;;
5622;SDS011;2833;50.432;10.706;2023-05-07T04:23:11;19.30;;;12.80;;
5622;SDS011;2833;50.432;10.706;2023-05-07T04:25:36;20.67;;;12.77;;
5622;SDS011;2833;50.432;10.706;2023-05-07T04:28:01;17.57;;;12.33;;
5622;SDS011;2833;50.432;10.706;2023-05-07T04:30:27;16.07;;;11.50;;
5622;SDS011;2833;50.432;10.706;2023-05-07T04:32:52;13.90;;;10.93;;
5622;SDS011;2833;50.432;10.706;2023-05-07T04:35:17;17.43;;;12.53;;
5622;SDS011;2833;50.432;10.706;2023-05-07T04:37:43;17.60;;;11.83;;
5622;SDS011;2833;50.432;10.706;2023-05-07T04:40:08;17.20;;;10.97;;
5622;SDS011;2833;50.432;10.706;2023-05-07T04:42:33;17.03;;;11.60;;
5622;SDS011;2833;50.432;10.706;2023-05-07T04:44:58;17.30;;;12.20;;
5622;SDS011;2833;50.432;10.706;2023-05-07T04:47:24;18.50;;;11.90;;
5622;SDS011;2833;50.432;10.706;2023-05-07T04:49:50;22.97;;;13.70;;
5622;SDS011;2833;50.432;10.706;2023-05-07T04:52:15;16.50;;;11.40;;
5622;SDS011;2833;50.432;10.706;2023-05-07T04:54:40;16.50;;;12.30;;
5622;SDS011;2833;50.432;10.706;2023-05-07T04:57:05;20.33;;;12.87;;
5622;SDS011;2833;50.432;10.706;2023-05-07T04:59:31;17.93;;;12.30;;
5622;SDS011;2833;50.432;10.706;2023-05-07T05:01:56;30.70;;;20.40;;
5622;SDS011;2833;50.432;10.706;2023-05-07T05:04:22;26.30;;;15.33;;
5622;SDS011;2833;50.432;10.706;2023-05-07T05:06:47;81.37;;;40.10;;
5622;SDS011;2833;50.432;10.706;2023-05-07T05:09:12;22.37;;;15.60;;
5622;SDS011;2833;50.432;10.706;2023-05-07T05:11:39;18.40;;;12.57;;
5622;SDS011;2833;50.432;10.706;2023-05-07T05:14:04;23.47;;;15.37;;
5622;SDS011;2833;50.432;10.706;2023-05-07T05:16:29;24.43;;;14.80;;
5622;SDS011;2833;50.432;10.706;2023-05-07T05:18:54;20.77;;;12.93;;
5622;SDS011;2833;50.432;10.706;2023-05-07T05:21:20;20.80;;;13.40;;
5622;SDS011;2833;50.432;10.706;2023-05-07T05:23:45;21.63;;;14.13;;
5622;SDS011;2833;50.432;10.706;2023-05-07T05:26:10;22.30;;;13.13;;
5622;SDS011;2833;50.432;10.706;2023-05-07T05:28:36;23.53;;;12.97;;
5622;SDS011;2833;50.432;10.706;2023-05-07T05:31:01;20.37;;;11.77;;
5622;SDS011;2833;50.432;10.706;2023-05-07T05:33:26;21.83;;;13.17;;
5622;SDS011;2833;50.432;10.706;2023-05-07T05:35:53;21.67;;;13.87;;
5622;SDS011;2833;50.432;10.706;2023-05-07T05:38:18;20.93;;;12.90;;
5622;SDS011;2833;50.432;10.706;2023-05-07T05:40:43;20.37;;;12.40;;
5622;SDS011;2833;50.432;10.706;2023-05-07T05:43:08;20.03;;;12.23;;
5622;SDS011;2833;50.432;10.706;2023-05-07T05:45:34;18.30;;;11.90;;
5622;SDS011;2833;50.432;10.706;2023-05-07T05:47:59;21.57;;;12.50;;
5622;SDS011;2833;50.432;10.706;2023-05-07T05:50:25;18.23;;;11.60;;
5622;SDS011;2833;50.432;10.706;2023-05-07T05:52:50;16.53;;;11.80;;
5622;SDS011;2833;50.432;10.706;2023-05-07T05:55:15;20.60;;;12.10;;
5622;SDS011;2833;50.432;10.706;2023-05-07T05:57:41;19.13;;;11.10;;
5622;SDS011;2833;50.432;10.706;2023-05-07T06:00:06;15.90;;;10.47;;
5622;SDS011;2833;50.432;10.706;2023-05-07T06:02:31;17.07;;;11.10;;
5622;SDS011;2833;50.432;10.706;2023-05-07T06:04:57;16.50;;;11.00;;
5622;SDS011;2833;50.432;10.706;2023-05-07T06:07:22;17.23;;;10.47;;
5622;SDS011;2833;50.432;10.706;2023-05-07T06:09:47;14.07;;;9.80;;
5622;SDS011;2833;50.432;10.706;2023-05-07T06:12:12;17.97;;;9.83;;
5622;SDS011;2833;50.432;10.706;2023-05-07T06:14:37;16.67;;;10.93;;
5622;SDS011;2833;50.432;10.706;2023-05-07T06:17:03;15.77;;;10.70;;
5622;SDS011;2833;50.432;10.706;2023-05-07T06:19:28;16.80;;;11.20;;
5622;SDS011;2833;50.432;10.706;2023-05-07T06:21:53;14.63;;;9.27;;
5622;SDS011;2833;50.432;10.706;2023-05-07T06:24:18;11.33;;;8.73;;
5622;SDS011;2833;50.432;10.706;2023-05-07T06:26:44;16.70;;;11.03;;
5622;SDS011;2833;50.432;10.706;2023-05-07T06:29:09;15.37;;;10.03;;
5622;SDS011;2833;50.432;10.706;2023-05-07T06:31:34;17.67;;;11.00;;
5622;SDS011;2833;50.432;10.706;2023-05-07T06:34:01;13.90;;;8.80;;
5622;SDS011;2833;50.432;10.706;2023-05-07T06:36:27;12.17;;;8.93;;
5622;SDS011;2833;50.432;10.706;2023-05-07T06:38:52;16.20;;;10.43;;
5622;SDS011;2833;50.432;10.706;2023-05-07T06:41:17;17.20;;;10.23;;
5622;SDS011;2833;50.432;10.706;2023-05-07T06:43:42;12.20;;;8.80;;
5622;SDS011;2833;50.432;10.706;2023-05-07T06:46:07;16.73;;;10.03;;
5622;SDS011;2833;50.432;10.706;2023-05-07T06:48:33;13.37;;;9.10;;
5622;SDS011;2833;50.432;10.706;2023-05-07T06:50:58;14.60;;;9.70;;
5622;SDS011;2833;50.432;10.706;2023-05-07T06:53:23;12.77;;;8.80;;
5622;SDS011;2833;50.432;10.706;2023-05-07T06:55:49;14.70;;;9.10;;
5622;SDS011;2833;50.432;10.706;2023-05-07T06:58:14;15.50;;;8.97;;
5622;SDS011;2833;50.432;10.706;2023-05-07T07:00:39;14.90;;;8.90;;
5622;SDS011;2833;50.432;10.706;2023-05-07T07:03:05;12.67;;;8.73;;
5622;SDS011;2833;50.432;10.706;2023-05-07T07:05:31;13.50;;;9.27;;
5622;SDS011;2833;50.432;10.706;2023-05-07T07:07:56;18.27;;;9.30;;
5622;SDS011;2833;50.432;10.706;2023-05-07T07:10:21;14.93;;;7.73;;
5622;SDS011;2833;50.432;10.706;2023-05-07T07:12:47;13.97;;;8.83;;
5622;SDS011;2833;50.432;10.706;2023-05-07T07:15:13;13.80;;;9.50;;
5622;SDS011;2833;50.432;10.706;2023-05-07T07:17:38;13.67;;;9.23;;
5622;SDS011;2833;50.432;10.706;2023-05-07T07:20:03;10.53;;;8.20;;
5622;SDS011;2833;50.432;10.706;2023-05-07T07:22:28;12.37;;;8.50;;
5622;SDS011;2833;50.432;10.706;2023-05-07T07:24:54;9.77;;;7.30;;
5622;SDS011;2833;50.432;10.706;2023-05-07T07:27:19;10.10;;;7.07;;
5622;SDS011;2833;50.432;10.706;2023-05-07T07:29:44;9.60;;;6.73;;
5622;SDS011;2833;50.432;10.706;2023-05-07T07:32:09;9.87;;;6.60;;
5622;SDS011;2833;50.432;10.706;2023-05-07T07:34:34;7.43;;;5.33;;
5622;SDS011;2833;50.432;10.706;2023-05-07T07:37:00;7.63;;;5.67;;
5622;SDS011;2833;50.432;10.706;2023-05-07T07:39:30;8.30;;;6.37;;
5622;SDS011;2833;50.432;10.706;2023-05-07T07:41:55;10.93;;;6.43;;
5622;SDS011;2833;50.432;10.706;2023-05-07T07:44:21;12.10;;;6.30;;
5622;SDS011;2833;50.432;10.706;2023-05-07T07:46:46;11.03;;;7.83;;
5622;SDS011;2833;50.432;10.706;2023-05-07T07:49:11;8.63;;;6.67;;
5622;SDS011;2833;50.432;10.706;2023-05-07T07:51:36;9.43;;;7.03;;
5622;SDS011;2833;50.432;10.706;2023-05-07T07:54:01;10.17;;;6.70;;
5622;SDS011;2833;50.432;10.706;2023-05-07T07:56:27;9.07;;;6.77;;
5622;SDS011;2833;50.432;10.706;2023-05-07T07:58:52;11.87;;;7.93;;
5622;SDS011;2833;50.432;10.706;2023-05-07T08:01:18;10.67;;;6.27;;
5622;SDS011;2833;50.432;10.706;2023-05-07T08:03:43;9.73;;;6.53;;
5622;SDS011;2833;50.432;10.706;2023-05-07T08:06:08;10.93;;;6.40;;
5622;SDS011;2833;50.432;10.706;2023-05-07T08:08:33;8.47;;;5.90;;
5622;SDS011;2833;50.432;10.706;2023-05-07T08:10:58;8.07;;;5.63;;
5622;SDS011;2833;50.432;10.706;2023-05-07T08:13:24;7.87;;;6.30;;
5622;SDS011;2833;50.432;10.706;2023-05-07T08:15:49;8.67;;;5.53;;
5622;SDS011;2833;50.432;10.706;2023-05-07T08:18:14;7.07;;;4.37;;
5622;SDS011;2833;50.432;10.706;2023-05-07T08:20:40;7.43;;;6.20;;
5622;SDS011;2833;50.432;10.706;2023-05-07T08:23:06;7.13;;;5.60;;
5622;SDS011;2833;50.432;10.706;2023-05-07T08:25:32;14.00;;;6.50;;
5622;SDS011;2833;50.432;10.706;2023-05-07T08:27:58;12.73;;;6.37;;
5622;SDS011;2833;50.432;10.706;2023-05-07T08:30:23;5.87;;;4.60;;
5622;SDS011;2833;50.432;10.706;2023-05-07T08:32:48;8.07;;;5.87;;
5622;SDS011;2833;50.432;10.706;2023-05-07T08:35:13;7.30;;;5.67;;
5622;SDS011;2833;50.432;10.706;2023-05-07T08:37:38;7.83;;;5.17;;
5622;SDS011;2833;50.432;10.706;2023-05-07T08:40:04;11.00;;;5.57;;
5622;SDS011;2833;50.432;10.706;2023-05-07T08:42:29;8.37;;;5.13;;
5622;SDS011;2833;50.432;10.706;2023-05-07T08:44:56;12.03;;;5.47;;
5622;SDS011;2833;50.432;10.706;2023-05-07T08:47:22;7.40;;;5.60;;
5622;SDS011;2833;50.432;10.706;2023-05-07T08:49:51;7.33;;;5.43;;
5622;SDS011;2833;50.432;10.706;2023-05-07T08:52:16;7.00;;;4.80;;
5622;SDS011;2833;50.432;10.706;2023-05-07T08:54:42;6.53;;;4.47;;
5622;SDS011;2833;50.432;10.706;2023-05-07T08:57:07;6.27;;;4.90;;
5622;SDS011;2833;50.432;10.706;2023-05-07T08:59:33;6.60;;;5.27;;
5622;SDS011;2833;50.432;10.706;2023-05-07T09:01:58;6.20;;;4.77;;
5622;SDS011;2833;50.432;10.706;2023-05-07T09:04:23;9.50;;;4.93;;
5622;SDS011;2833;50.432;10.706;2023-05-07T09:06:48;6.07;;;5.20;;
5622;SDS011;2833;50.432;10.706;2023-05-07T09:09:16;8.40;;;6.00;;
5622;SDS011;2833;50.432;10.706;2023-05-07T09:11:42;6.87;;;5.10;;
5622;SDS011;2833;50.432;10.706;2023-05-07T09:14:07;6.80;;;5.03;;
5622;SDS011;2833;50.432;10.706;2023-05-07T09:16:32;5.77;;;4.70;;
5622;SDS011;2833;50.432;10.706;2023-05-07T09:18:58;6.93;;;5.40;;
5622;SDS011;2833;50.432;10.706;2023-05-07T09:21:24;6.27;;;4.30;;
5622;SDS011;2833;50.432;10.706;2023-05-07T09:23:52;7.70;;;5.10;;
5622;SDS011;2833;50.432;10.706;2023-05-07T09:26:18;5.53;;;4.80;;
5622;SDS011;2833;50.432;10.706;2023-05-07T09:28:45;6.53;;;4.90;;
5622;SDS011;2833;50.432;10.706;2023-05-07T09:31:11;7.70;;;4.10;;
5622;SDS011;2833;50.432;10.706;2023-05-07T09:33:37;6.53;;;4.80;;
5622;SDS011;2833;50.432;10.706;2023-05-07T09:36:03;7.80;;;5.67;;
5622;SDS011;2833;50.432;10.706;2023-05-07T09:38:28;8.17;;;4.77;;
5622;SDS011;2833;50.432;10.706;2023-05-07T09:43:31;13.20;;;7.63;;
5622;SDS011;2833;50.432;10.706;2023-05-07T09:45:57;9.10;;;6.50;;
5622;SDS011;2833;50.432;10.706;2023-05-07T09:48:23;6.97;;;5.60;;
5622;SDS011;2833;50.432;10.706;2023-05-07T09:50:49;10.10;;;5.67;;
5622;SDS011;2833;50.432;10.706;2023-05-07T09:53:14;38.07;;;21.30;;
5622;SDS011;2833;50.432;10.706;2023-05-07T09:55:40;35.80;;;21.53;;
5622;SDS011;2833;50.432;10.706;2023-05-07T09:58:06;41.90;;;22.50;;
5622;SDS011;2833;50.432;10.706;2023-05-07T10:00:32;56.83;;;27.77;;
5622;SDS011;2833;50.432;10.706;2023-05-07T10:02:57;35.53;;;19.63;;
5622;SDS011;2833;50.432;10.706;2023-05-07T10:05:23;7.47;;;5.97;;
5622;SDS011;2833;50.432;10.706;2023-05-07T10:07:49;59.00;;;28.67;;
5622;SDS011;2833;50.432;10.706;2023-05-07T10:10:14;64.53;;;34.53;;
5622;SDS011;2833;50.432;10.706;2023-05-07T10:12:40;17.03;;;10.63;;
5622;SDS011;2833;50.432;10.706;2023-05-07T10:15:06;43.80;;;23.93;;
5622;SDS011;2833;50.432;10.706;2023-05-07T10:17:32;54.00;;;30.57;;
5622;SDS011;2833;50.432;10.706;2023-05-07T10:19:59;8.93;;;6.53;;
5622;SDS011;2833;50.432;10.706;2023-05-07T10:22:24;33.13;;;17.73;;
5622;SDS011;2833;50.432;10.706;2023-05-07T10:24:52;45.07;;;24.27;;
5622;SDS011;2833;50.432;10.706;2023-05-07T10:27:19;15.77;;;11.43;;
5622;SDS011;2833;50.432;10.706;2023-05-07T10:35:01;48.10;;;25.47;;
5622;SDS011;2833;50.432;10.706;2023-05-07T10:37:27;55.47;;;27.37;;
5622;SDS011;2833;50.432;10.706;2023-05-07T10:39:53;37.03;;;22.43;;
5622;SDS011;2833;50.432;10.706;2023-05-07T10:42:18;8.23;;;6.20;;
5622;SDS011;2833;50.432;10.706;2023-05-07T10:44:43;51.00;;;26.50;;
5622;SDS011;2833;50.432;10.706;2023-05-07T10:47:09;14.73;;;9.13;;
5622;SDS011;2833;50.432;10.706;2023-05-07T10:54:38;22.97;;;13.97;;
5622;SDS011;2833;50.432;10.706;2023-05-07T10:59:47;4.17;;;3.77;;
5622;SDS011;2833;50.432;10.706;2023-05-07T11:02:12;23.03;;;13.13;;
5622;SDS011;2833;50.432;10.706;2023-05-07T11:04:40;32.57;;;18.37;;
5622;SDS011;2833;50.432;10.706;2023-05-07T11:12:15;33.40;;;18.33;;
5622;SDS011;2833;50.432;10.706;2023-05-07T11:17:06;6.10;;;3.63;;
5622;SDS011;2833;50.432;10.706;2023-05-07T11:19:50;4.60;;;3.70;;
5622;SDS011;2833;50.432;10.706;2023-05-07T11:22:35;4.10;;;3.70;;
5622;SDS011;2833;50.432;10.706;2023-05-07T11:25:05;12.53;;;7.60;;
5622;SDS011;2833;50.432;10.706;2023-05-07T11:27:31;22.97;;;13.77;;
5622;SDS011;2833;50.432;10.706;2023-05-07T11:29:56;3.80;;;3.50;;
5622;SDS011;2833;50.432;10.706;2023-05-07T11:32:26;6.70;;;4.30;;
5622;SDS011;2833;50.432;10.706;2023-05-07T11:34:52;22.57;;;13.63;;
5622;SDS011;2833;50.432;10.706;2023-05-07T11:37:17;7.73;;;5.03;;
5622;SDS011;2833;50.432;10.706;2023-05-07T11:39:43;31.17;;;14.93;;
5622;SDS011;2833;50.432;10.706;2023-05-07T11:42:27;22.33;;;12.40;;
5622;SDS011;2833;50.432;10.706;2023-05-07T11:44:53;8.30;;;5.90;;
5622;SDS011;2833;50.432;10.706;2023-05-07T11:47:18;11.60;;;7.37;;
5622;SDS011;2833;50.432;10.706;2023-05-07T11:49:46;9.23;;;6.57;;
5622;SDS011;2833;50.432;10.706;2023-05-07T11:52:12;15.43;;;9.70;;
5622;SDS011;2833;50.432;10.706;2023-05-07T11:54:37;7.03;;;5.60;;
5622;SDS011;2833;50.432;10.706;2023-05-07T11:57:03;19.23;;;11.50;;
5622;SDS011;2833;50.432;10.706;2023-05-07T11:59:28;12.83;;;8.00;;
5622;SDS011;2833;50.432;10.706;2023-05-07T12:01:56;19.50;;;11.60;;
5622;SDS011;2833;50.432;10.706;2023-05-07T12:04:22;14.27;;;7.97;;
5622;SDS011;2833;50.432;10.706;2023-05-07T12:06:47;23.73;;;10.47;;
5622;SDS011;2833;50.432;10.706;2023-05-07T12:09:12;20.83;;;11.23;;
5622;SDS011;2833;50.432;10.706;2023-05-07T12:11:37;14.53;;;8.03;;
5622;SDS011;2833;50.432;10.706;2023-05-07T12:14:04;13.93;;;8.73;;
5622;SDS011;2833;50.432;10.706;2023-05-07T12:16:30;16.83;;;10.00;;
5622;SDS011;2833;50.432;10.706;2023-05-07T12:18:55;7.23;;;5.97;;
5622;SDS011;2833;50.432;10.706;2023-05-07T12:21:21;10.30;;;7.20;;
5622;SDS011;2833;50.432;10.706;2023-05-07T12:23:47;14.80;;;9.67;;
5622;SDS011;2833;50.432;10.706;2023-05-07T12:26:12;5.57;;;4.60;;
5622;SDS011;2833;50.432;10.706;2023-05-07T12:28:38;5.37;;;4.33;;
5622;SDS011;2833;50.432;10.706;2023-05-07T12:31:06;9.77;;;6.90;;
5622;SDS011;2833;50.432;10.706;2023-05-07T12:33:32;11.20;;;7.60;;
5622;SDS011;2833;50.432;10.706;2023-05-07T12:35:58;11.83;;;7.60;;
5622;SDS011;2833;50.432;10.706;2023-05-07T12:38:23;8.40;;;6.63;;
5622;SDS011;2833;50.432;10.706;2023-05-07T12:40:49;9.70;;;6.73;;
5622;SDS011;2833;50.432;10.706;2023-05-07T12:43:49;4.80;;;4.33;;
5622;SDS011;2833;50.432;10.706;2023-05-07T12:46:07;6.33;;;4.30;;
5622;SDS011;2833;50.432;10.706;2023-05-07T12:48:32;10.73;;;7.13;;
5622;SDS011;2833;50.432;10.706;2023-05-07T12:50:59;11.27;;;6.63;;
5622;SDS011;2833;50.432;10.706;2023-05-07T12:53:25;5.43;;;4.47;;
5622;SDS011;2833;50.432;10.706;2023-05-07T12:55:52;6.00;;;4.83;;
5622;SDS011;2833;50.432;10.706;2023-05-07T12:58:26;6.90;;;4.90;;
5622;SDS011;2833;50.432;10.706;2023-05-07T13:00:52;6.47;;;4.00;;
5622;SDS011;2833;50.432;10.706;2023-05-07T13:03:25;6.60;;;4.77;;
5622;SDS011;2833;50.432;10.706;2023-05-07T13:05:51;6.10;;;4.70;;
5622;SDS011;2833;50.432;10.706;2023-05-07T13:08:26;4.80;;;3.30;;
5622;SDS011;2833;50.432;10.706;2023-05-07T13:10:51;5.60;;;4.30;;
5622;SDS011;2833;50.432;10.706;2023-05-07T13:13:17;6.63;;;4.50;;
5622;SDS011;2833;50.432;10.706;2023-05-07T13:15:42;5.60;;;4.63;;
5622;SDS011;2833;50.432;10.706;2023-05-07T13:18:07;6.43;;;4.57;;
5622;SDS011;2833;50.432;10.706;2023-05-07T13:20:35;5.13;;;4.33;;
5622;SDS011;2833;50.432;10.706;2023-05-07T13:23:00;5.50;;;4.60;;
5622;SDS011;2833;50.432;10.706;2023-05-07T13:25:27;5.67;;;4.50;;
5622;SDS011;2833;50.432;10.706;2023-05-07T13:27:52;4.80;;;3.93;;
5622;SDS011;2833;50.432;10.706;2023-05-07T13:30:17;6.57;;;4.80;;
5622;SDS011;2833;50.432;10.706;2023-05-07T13:32:42;7.63;;;5.37;;
5622;SDS011;2833;50.432;10.706;2023-05-07T13:35:07;6.40;;;4.40;;
5622;SDS011;2833;50.432;10.706;2023-05-07T13:37:32;5.73;;;4.17;;
5622;SDS011;2833;50.432;10.706;2023-05-07T13:39:58;6.43;;;4.60;;
5622;SDS011;2833;50.432;10.706;2023-05-07T13:42:23;7.17;;;4.40;;
5622;SDS011;2833;50.432;10.706;2023-05-07T13:44:48;6.20;;;4.60;;
5622;SDS011;2833;50.432;10.706;2023-05-07T13:47:13;5.50;;;4.10;;
5622;SDS011;2833;50.432;10.706;2023-05-07T13:49:38;6.60;;;5.10;;
5622;SDS011;2833;50.432;10.706;2023-05-07T13:52:04;4.87;;;4.13;;
5622;SDS011;2833;50.432;10.706;2023-05-07T13:54:29;7.57;;;5.47;;
5622;SDS011;2833;50.432;10.706;2023-05-07T13:56:54;9.23;;;6.17;;
5622;SDS011;2833;50.432;10.706;2023-05-07T13:59:19;5.20;;;4.43;;
5622;SDS011;2833;50.432;10.706;2023-05-07T14:01:44;3.87;;;2.83;;
5622;SDS011;2833;50.432;10.706;2023-05-07T14:04:10;6.13;;;5.10;;
5622;SDS011;2833;50.432;10.706;2023-05-07T14:06:35;6.80;;;5.50;;
5622;SDS011;2833;50.432;10.706;2023-05-07T14:09:01;5.63;;;4.67;;
5622;SDS011;2833;50.432;10.706;2023-05-07T14:11:26;6.97;;;5.50;;
5622;SDS011;2833;50.432;10.706;2023-05-07T14:13:51;6.70;;;4.13;;
5622;SDS011;2833;50.432;10.706;2023-05-07T14:16:16;6.83;;;5.00;;
5622;SDS011;2833;50.432;10.706;2023-05-07T14:18:41;6.10;;;4.83;;
5622;SDS011;2833;50.432;10.706;2023-05-07T14:21:06;9.60;;;6.90;;
5622;SDS011;2833;50.432;10.706;2023-05-07T14:23:32;7.87;;;5.60;;
5622;SDS011;2833;50.432;10.706;2023-05-07T14:25:57;8.70;;;6.30;;
5622;SDS011;2833;50.432;10.706;2023-05-07T14:28:23;7.17;;;5.93;;
5622;SDS011;2833;50.432;10.706;2023-05-07T14:30:48;5.50;;;3.53;;
5622;SDS011;2833;50.432;10.706;2023-05-07T14:33:13;8.93;;;6.17;;
5622;SDS011;2833;50.432;10.706;2023-05-07T14:35:39;6.97;;;5.60;;
5622;SDS011;2833;50.432;10.706;2023-05-07T14:38:04;7.27;;;5.40;;
5622;SDS011;2833;50.432;10.706;2023-05-07T14:40:29;8.50;;;5.33;;
5622;SDS011;2833;50.432;10.706;2023-05-07T14:42:54;2.77;;;2.33;;
5622;SDS011;2833;50.432;10.706;2023-05-07T14:45:22;6.73;;;5.10;;
5622;SDS011;2833;50.432;10.706;2023-05-07T14:47:47;7.07;;;5.17;;
5622;SDS011;2833;50.432;10.706;2023-05-07T14:50:12;5.00;;;3.77;;
5622;SDS011;2833;50.432;10.706;2023-05-07T14:52:37;5.17;;;3.77;;
5622;SDS011;2833;50.432;10.706;2023-05-07T14:55:02;3.23;;;2.30;;
5622;SDS011;2833;50.432;10.706;2023-05-07T14:57:28;4.77;;;3.47;;
5622;SDS011;2833;50.432;10.706;2023-05-07T14:59:53;7.00;;;5.20;;
5622;SDS011;2833;50.432;10.706;2023-05-07T15:02:18;5.00;;;3.87;;
5622;SDS011;2833;50.432;10.706;2023-05-07T15:04:44;7.80;;;5.50;;